createdAt,value
2023-05-01T00:01:00.902Z,100682.31
2023-05-01T00:03:28.458Z,100681.47
2023-05-01T00:06:08.092Z,100670.41
2023-05-01T00:08:35.675Z,100673.78
2023-05-01T00:11:05.082Z,100685.16
2023-05-01T00:13:32.740Z,100681.81
2023-05-01T00:16:00.477Z,100685.22
2023-05-01T00:18:30.512Z,100690.88
2023-05-01T00:20:57.860Z,100695.66
2023-05-01T00:23:25.791Z,100697.44
2023-05-01T00:25:53.150Z,100710.38
2023-05-01T00:28:21.211Z,100704.00
2023-05-01T00:30:48.614Z,100707.53
2023-05-01T00:33:16.394Z,100705.00
2023-05-01T00:35:47.170Z,100702.38
2023-05-01T00:38:14.620Z,100705.00
2023-05-01T00:40:45.041Z,100701.03
2023-05-01T00:43:13.020Z,100700.00
2023-05-01T00:45:44.322Z,100698.69
2023-05-01T00:48:12.332Z,100691.59
2023-05-01T00:50:40.637Z,100697.44
2023-05-01T00:53:07.997Z,100699.97
2023-05-01T00:55:36.005Z,100695.13
2023-05-01T00:58:04.814Z,100703.03
2023-05-01T01:00:32.333Z,100697.84
2023-05-01T01:02:59.942Z,100691.13
2023-05-01T01:05:30.595Z,100690.28
2023-05-01T01:08:10.677Z,100696.53
2023-05-01T01:10:54.591Z,100690.28
2023-05-01T01:13:32.696Z,100690.47
2023-05-01T01:16:23.849Z,100684.25
2023-05-01T01:19:14.448Z,100687.91
2023-05-01T01:21:45.490Z,100697.50
2023-05-01T01:24:34.660Z,100689.97
2023-05-01T01:27:30.073Z,100691.63
2023-05-01T01:30:22.240Z,100694.53
2023-05-01T01:33:01.483Z,100694.19
2023-05-01T01:35:31.748Z,100693.34
2023-05-01T01:38:07.061Z,100705.44
2023-05-01T01:40:44.056Z,100706.59
2023-05-01T01:43:16.988Z,100703.06
2023-05-01T01:45:49.910Z,100704.09
2023-05-01T01:48:22.769Z,100711.78
2023-05-01T01:50:53.155Z,100714.81
2023-05-01T01:53:22.219Z,100714.47
2023-05-01T01:55:52.317Z,100721.19
2023-05-01T01:58:26.245Z,100724.53
2023-05-01T02:00:55.595Z,100717.00
2023-05-01T02:03:24.518Z,100718.84
2023-05-01T02:05:56.081Z,100717.16
2023-05-01T02:08:25.490Z,100730.56
2023-05-01T02:11:01.684Z,100725.22
2023-05-01T02:13:31.594Z,100732.41
2023-05-01T02:16:00.027Z,100736.94
2023-05-01T02:18:29.435Z,100735.94
2023-05-01T02:21:01.180Z,100740.63
2023-05-01T02:23:31.210Z,100744.66
2023-05-01T02:26:03.048Z,100748.84
2023-05-01T02:28:32.035Z,100753.53
2023-05-01T02:30:59.836Z,100753.53
2023-05-01T02:33:27.501Z,100762.41
2023-05-01T02:35:54.888Z,100761.22
2023-05-01T02:38:22.598Z,100763.09
2023-05-01T02:40:53.490Z,100760.41
2023-05-01T02:43:23.478Z,100762.41
2023-05-01T02:45:52.320Z,100763.94
2023-05-01T02:48:27.681Z,100762.72
2023-05-01T02:50:56.835Z,100770.44
2023-05-01T02:53:24.260Z,100775.50
2023-05-01T02:55:51.768Z,100782.00
2023-05-01T02:58:20.509Z,100780.31
2023-05-01T03:00:51.032Z,100783.00
2023-05-01T03:03:19.013Z,100789.38
2023-05-01T03:05:47.704Z,100795.88
2023-05-01T03:08:15.562Z,100793.06
2023-05-01T03:10:43.381Z,100799.59
2023-05-01T03:13:11.761Z,100790.69
2023-05-01T03:15:39.565Z,100798.72
2023-05-01T03:18:07.797Z,100800.41
2023-05-01T03:20:35.421Z,100798.56
2023-05-01T03:23:02.902Z,100799.59
2023-05-01T03:25:30.334Z,100809.13
2023-05-01T03:27:57.681Z,100817.00
2023-05-01T03:30:25.089Z,100822.88
2023-05-01T03:32:52.713Z,100827.06
2023-05-01T03:35:20.069Z,100833.09
2023-05-01T03:37:47.490Z,100835.78
2023-05-01T03:40:15.202Z,100834.78
2023-05-01T03:42:42.802Z,100844.16
2023-05-01T03:45:11.168Z,100840.84
2023-05-01T03:47:38.774Z,100836.13
2023-05-01T03:50:06.846Z,100847.19
2023-05-01T03:52:34.711Z,100850.88
2023-05-01T03:55:02.249Z,100846.19
2023-05-01T03:57:29.732Z,100846.19
2023-05-01T03:59:57.873Z,100844.31
2023-05-01T04:02:25.653Z,100852.22
2023-05-01T04:04:53.155Z,100854.75
2023-05-01T04:07:20.734Z,100855.72
2023-05-01T04:09:48.567Z,100848.22
2023-05-01T04:12:16.246Z,100843.19
2023-05-01T04:14:44.596Z,100852.38
2023-05-01T04:17:12.041Z,100845.50
2023-05-01T04:19:39.458Z,100853.59
2023-05-01T04:22:07.040Z,100851.56
2023-05-01T04:24:34.504Z,100848.22
2023-05-01T04:27:02.714Z,100854.25
2023-05-01T04:29:30.141Z,100860.44
2023-05-01T04:31:57.659Z,100856.59
2023-05-01T04:34:25.670Z,100855.41
2023-05-01T04:36:54.083Z,100860.47
2023-05-01T04:39:23.987Z,100864.63
2023-05-01T04:41:51.339Z,100867.19
2023-05-01T04:44:18.659Z,100874.38
2023-05-01T04:46:46.486Z,100872.03
2023-05-01T04:49:14.579Z,100871.69
2023-05-01T04:51:41.977Z,100875.38
2023-05-01T04:54:09.563Z,100872.34
2023-05-01T04:56:36.993Z,100881.75
2023-05-01T04:59:04.326Z,100880.38
2023-05-01T05:01:31.924Z,100879.91
2023-05-01T05:03:59.642Z,100883.75
2023-05-01T05:06:27.279Z,100878.06
2023-05-01T05:08:55.889Z,100888.28
2023-05-01T05:11:23.476Z,100883.28
2023-05-01T05:13:50.863Z,100886.25
2023-05-01T05:16:18.434Z,100887.28
2023-05-01T05:18:45.856Z,100892.31
2023-05-01T05:21:13.282Z,100886.44
2023-05-01T05:23:41.246Z,100891.78
2023-05-01T05:26:08.625Z,100888.78
2023-05-01T05:28:36.076Z,100889.13
2023-05-01T05:31:03.574Z,100899.50
2023-05-01T05:33:31.070Z,100903.91
2023-05-01T05:35:59.661Z,100906.41
2023-05-01T05:38:27.523Z,100908.44
2023-05-01T05:40:55.168Z,100910.91
2023-05-01T05:43:23.660Z,100911.75
2023-05-01T05:45:51.938Z,100919.63
2023-05-01T05:48:19.928Z,100912.94
2023-05-01T05:50:47.272Z,100913.47
2023-05-01T05:53:14.786Z,100927.72
2023-05-01T05:55:43.549Z,100924.66
2023-05-01T05:58:11.416Z,100921.97
2023-05-01T06:00:38.862Z,100925.16
2023-05-01T06:03:07.310Z,100924.81
2023-05-01T06:05:34.817Z,100930.66
2023-05-01T06:08:02.281Z,100939.41
2023-05-01T06:10:29.939Z,100939.59
2023-05-01T06:12:59.817Z,100943.06
2023-05-01T06:15:30.129Z,100944.19
2023-05-01T06:17:57.515Z,100945.66
2023-05-01T06:20:25.033Z,100938.97
2023-05-01T06:22:52.458Z,100944.88
2023-05-01T06:25:19.873Z,100952.00
2023-05-01T06:27:47.772Z,100951.09
2023-05-01T06:30:15.337Z,100947.91
2023-05-01T06:32:44.050Z,100951.94
2023-05-01T06:35:11.536Z,100952.22
2023-05-01T06:37:39.158Z,100953.53
2023-05-01T06:40:08.276Z,100954.22
2023-05-01T06:42:39.809Z,100962.88
2023-05-01T06:45:08.517Z,100963.69
2023-05-01T06:47:36.297Z,100968.75
2023-05-01T06:50:05.695Z,100968.16
2023-05-01T06:52:34.069Z,100970.19
2023-05-01T06:55:01.462Z,100968.78
2023-05-01T06:57:29.565Z,100978.44
2023-05-01T06:59:57.536Z,100982.81
2023-05-01T07:02:26.035Z,100994.72
2023-05-01T07:04:53.707Z,100982.59
2023-05-01T07:07:21.149Z,100983.81
2023-05-01T07:09:48.525Z,100992.31
2023-05-01T07:12:16.270Z,100999.56
2023-05-01T07:14:43.877Z,100997.19
2023-05-01T07:17:11.373Z,101002.53
2023-05-01T07:19:38.969Z,101006.75
2023-05-01T07:22:06.327Z,101005.06
2023-05-01T07:24:33.808Z,101009.25
2023-05-01T07:27:01.257Z,100999.06
2023-05-01T07:29:28.769Z,101009.59
2023-05-01T07:31:56.183Z,101002.28
2023-05-01T07:34:23.538Z,101013.06
2023-05-01T07:36:50.949Z,101016.16
2023-05-01T07:39:18.470Z,101022.50
2023-05-01T07:41:45.951Z,101023.84
2023-05-01T07:44:14.032Z,101031.25
2023-05-01T07:46:41.889Z,101031.25
2023-05-01T07:49:09.318Z,101044.38
2023-05-01T07:51:36.756Z,101043.56
2023-05-01T07:54:04.862Z,101037.94
2023-05-01T07:56:32.684Z,101039.56
2023-05-01T07:59:00.108Z,101042.72
2023-05-01T08:01:27.722Z,101050.94
2023-05-01T08:03:55.357Z,101048.59
2023-05-01T08:06:22.938Z,101052.78
2023-05-01T08:08:50.391Z,101050.94
2023-05-01T08:11:17.801Z,101051.03
2023-05-01T08:13:45.318Z,101052.22
2023-05-01T08:16:12.836Z,101053.19
2023-05-01T08:18:40.495Z,101055.34
2023-05-01T08:21:07.955Z,101054.25
2023-05-01T08:23:35.530Z,101049.91
2023-05-01T08:26:02.946Z,101057.47
2023-05-01T08:28:30.610Z,101055.22
2023-05-01T08:30:58.119Z,101053.91
2023-05-01T08:33:25.570Z,101054.84
2023-05-01T08:35:53.090Z,101066.03
2023-05-01T08:38:20.554Z,101059.16
2023-05-01T08:40:53.261Z,101066.88
2023-05-01T08:43:22.803Z,101066.25
2023-05-01T08:45:51.802Z,101070.38
2023-05-01T08:48:20.758Z,101078.16
2023-05-01T08:50:49.755Z,101074.25
2023-05-01T08:53:19.190Z,101068.69
2023-05-01T08:55:48.087Z,101083.34
2023-05-01T08:58:18.661Z,101074.91
2023-05-01T09:00:47.364Z,101076.16
2023-05-01T09:03:16.844Z,101074.00
2023-05-01T09:05:44.707Z,101084.34
2023-05-01T09:08:12.459Z,101082.69
2023-05-01T09:10:44.552Z,101092.00
2023-05-01T09:13:12.694Z,101098.13
2023-05-01T09:15:40.434Z,101090.31
2023-05-01T09:18:09.047Z,101095.25
2023-05-01T09:20:37.503Z,101098.41
2023-05-01T09:23:05.587Z,101099.50
2023-05-01T09:25:33.546Z,101103.97
2023-05-01T09:28:01.763Z,101099.53
2023-05-01T09:30:37.763Z,101102.50
2023-05-01T09:33:10.986Z,101108.06
2023-05-01T09:35:59.880Z,101121.56
2023-05-01T09:38:29.397Z,101113.09
2023-05-01T09:41:04.532Z,101112.72
2023-05-01T09:43:31.961Z,101122.09
2023-05-01T09:46:01.291Z,101125.28
2023-05-01T09:48:29.332Z,101129.28
2023-05-01T09:50:56.685Z,101132.53
2023-05-01T09:53:40.589Z,101136.63
2023-05-01T09:56:08.072Z,101135.53
2023-05-01T09:58:35.472Z,101137.84
2023-05-01T10:01:03.044Z,101146.88
2023-05-01T10:03:31.035Z,101143.78
2023-05-01T10:06:00.955Z,101147.34
2023-05-01T10:08:49.908Z,101152.63
2023-05-01T10:11:17.278Z,101158.22
2023-05-01T10:13:44.699Z,101165.38
2023-05-01T10:16:34.471Z,101164.53
2023-05-01T10:19:03.684Z,101161.72
2023-05-01T10:21:33.609Z,101174.84
2023-05-01T10:24:06.083Z,101169.47
2023-05-01T10:26:37.721Z,101164.53
2023-05-01T10:29:05.172Z,101185.16
2023-05-01T10:31:33.301Z,101184.06
2023-05-01T10:34:04.320Z,101184.06
2023-05-01T10:36:46.693Z,101194.31
2023-05-01T10:39:33.955Z,101192.69
2023-05-01T10:42:08.590Z,101199.00
2023-05-01T10:44:36.298Z,101194.25
2023-05-01T10:47:42.968Z,101199.53
2023-05-01T10:50:16.052Z,101206.19
2023-05-01T10:53:17.683Z,101202.41
2023-05-01T10:55:46.470Z,101211.94
2023-05-01T10:58:35.547Z,101219.41
2023-05-01T11:01:28.928Z,101208.38
2023-05-01T11:03:57.431Z,101226.13
2023-05-01T11:06:25.329Z,101224.63
2023-05-01T11:08:53.492Z,101231.88
2023-05-01T11:11:23.557Z,101226.97
2023-05-01T11:14:04.309Z,101229.03
2023-05-01T11:16:38.375Z,101227.09
2023-05-01T11:19:07.953Z,101233.94
2023-05-01T11:21:38.991Z,101233.53
2023-05-01T11:24:08.048Z,101234.75
2023-05-01T11:26:42.812Z,101238.44
2023-05-01T11:29:11.770Z,101237.41
2023-05-01T11:31:39.753Z,101235.03
2023-05-01T11:34:07.397Z,101238.50
2023-05-01T11:36:52.319Z,101241.06
2023-05-01T11:39:20.569Z,101243.22
2023-05-01T11:41:48.163Z,101240.81
2023-05-01T11:44:17.428Z,101236.31
2023-05-01T11:46:44.935Z,101246.97
2023-05-01T11:49:12.497Z,101244.47
2023-05-01T11:51:40.168Z,101243.00
2023-05-01T11:54:15.125Z,101251.78
2023-05-01T11:56:43.324Z,101257.41
2023-05-01T11:59:20.325Z,101246.53
2023-05-01T12:01:47.776Z,101248.91
2023-05-01T12:04:25.199Z,101259.94
2023-05-01T12:06:52.753Z,101262.72
2023-05-01T12:09:25.520Z,101259.56
2023-05-01T12:11:53.683Z,101258.38
2023-05-01T12:14:22.174Z,101248.13
2023-05-01T12:16:50.025Z,101256.34
2023-05-01T12:19:18.365Z,101261.84
2023-05-01T12:21:45.929Z,101261.38
2023-05-01T12:24:17.492Z,101261.34
2023-05-01T12:26:46.306Z,101264.72
2023-05-01T12:29:13.859Z,101270.00
2023-05-01T12:31:49.302Z,101269.19
2023-05-01T12:34:17.088Z,101272.03
2023-05-01T12:36:54.363Z,101266.13
2023-05-01T12:39:23.626Z,101272.84
2023-05-01T12:41:51.872Z,101275.47
2023-05-01T12:44:27.045Z,101264.78
2023-05-01T12:47:09.916Z,101276.50
2023-05-01T12:49:37.957Z,101279.53
2023-05-01T12:52:07.992Z,101277.44
2023-05-01T12:54:40.098Z,101278.09
2023-05-01T12:57:15.348Z,101276.31
2023-05-01T12:59:45.267Z,101286.81
2023-05-01T13:02:16.159Z,101291.50
2023-05-01T13:04:44.533Z,101289.53
2023-05-01T13:07:19.441Z,101289.81
2023-05-01T13:09:54.791Z,101297.56
2023-05-01T13:12:23.024Z,101297.41
2023-05-01T13:14:51.463Z,101302.81
2023-05-01T13:17:27.976Z,101307.63
2023-05-01T13:19:57.321Z,101305.84
2023-05-01T13:22:40.034Z,101305.09
2023-05-01T13:25:20.194Z,101311.34
2023-05-01T13:27:50.020Z,101311.53
2023-05-01T13:30:30.783Z,101305.53
2023-05-01T13:32:58.373Z,101316.25
2023-05-01T13:35:27.246Z,101312.81
2023-05-01T13:37:54.759Z,101314.31
2023-05-01T13:40:26.255Z,101318.66
2023-05-01T13:42:56.769Z,101315.91
2023-05-01T13:45:25.005Z,101326.00
2023-05-01T13:47:52.750Z,101325.59
2023-05-01T13:50:20.274Z,101326.31
2023-05-01T13:52:48.547Z,101322.22
2023-05-01T13:55:17.849Z,101326.91
2023-05-01T13:57:45.303Z,101330.56
2023-05-01T14:00:19.921Z,101335.81
2023-05-01T14:02:48.987Z,101339.41
2023-05-01T14:05:20.608Z,101342.78
2023-05-01T14:07:55.153Z,101348.31
2023-05-01T14:10:26.435Z,101341.56
2023-05-01T14:12:58.889Z,101349.59
2023-05-01T14:15:28.831Z,101348.19
2023-05-01T14:17:56.432Z,101350.91
2023-05-01T14:20:27.158Z,101350.44
2023-05-01T14:22:54.826Z,101353.72
2023-05-01T14:25:24.968Z,101352.03
2023-05-01T14:27:53.763Z,101354.06
2023-05-01T14:30:34.897Z,101355.38
2023-05-01T14:33:03.760Z,101354.16
2023-05-01T14:35:32.100Z,101355.59
2023-05-01T14:38:10.928Z,101360.69
2023-05-01T14:40:40.500Z,101355.59
2023-05-01T14:43:10.533Z,101359.88
2023-05-01T14:45:42.740Z,101368.28
2023-05-01T14:48:20.864Z,101366.41
2023-05-01T14:50:48.272Z,101372.72
2023-05-01T14:53:15.823Z,101370.38
2023-05-01T14:55:43.564Z,101365.94
2023-05-01T14:58:11.190Z,101370.13
2023-05-01T15:00:38.620Z,101368.66
2023-05-01T15:03:06.261Z,101366.59
2023-05-01T15:05:34.518Z,101376.38
2023-05-01T15:08:02.462Z,101378.72
2023-05-01T15:10:31.827Z,101375.44
2023-05-01T15:12:59.265Z,101376.94
2023-05-01T15:15:26.948Z,101375.38
2023-05-01T15:17:54.610Z,101378.63
2023-05-01T15:20:23.221Z,101378.94
2023-05-01T15:22:50.590Z,101370.16
2023-05-01T15:25:18.178Z,101370.31
2023-05-01T15:27:46.408Z,101379.34
2023-05-01T15:30:15.222Z,101379.28
2023-05-01T15:32:43.678Z,101379.09
2023-05-01T15:35:11.341Z,101380.38
2023-05-01T15:37:38.813Z,101385.50
2023-05-01T15:40:07.048Z,101382.84
2023-05-01T15:42:35.022Z,101391.13
2023-05-01T15:45:03.578Z,101392.81
2023-05-01T15:47:31.340Z,101390.28
2023-05-01T15:49:59.033Z,101404.88
2023-05-01T15:52:27.239Z,101410.56
2023-05-01T15:54:55.103Z,101407.78
2023-05-01T15:57:22.644Z,101416.09
2023-05-01T15:59:54.042Z,101422.53
2023-05-01T16:02:22.039Z,101433.00
2023-05-01T16:04:49.741Z,101428.63
2023-05-01T16:07:17.946Z,101436.84
2023-05-01T16:09:45.547Z,101447.88
2023-05-01T16:12:13.003Z,101438.53
2023-05-01T16:14:43.496Z,101457.59
2023-05-01T16:17:11.158Z,101459.28
2023-05-01T16:19:39.331Z,101465.16
2023-05-01T16:22:07.414Z,101470.38
2023-05-01T16:24:36.247Z,101472.94
2023-05-01T16:27:03.648Z,101479.75
2023-05-01T16:29:35.311Z,101479.59
2023-05-01T16:32:05.914Z,101486.59
2023-05-01T16:34:33.501Z,101481.22
2023-05-01T16:37:00.978Z,101492.31
2023-05-01T16:39:28.681Z,101493.50
2023-05-01T16:41:56.234Z,101497.22
2023-05-01T16:44:23.833Z,101509.22
2023-05-01T16:46:53.709Z,101518.31
2023-05-01T16:49:25.229Z,101523.38
2023-05-01T16:51:56.810Z,101521.09
2023-05-01T16:54:25.257Z,101531.38
2023-05-01T16:56:52.784Z,101534.63
2023-05-01T16:59:20.357Z,101535.34
2023-05-01T17:01:48.045Z,101536.69
2023-05-01T17:04:15.663Z,101535.97
2023-05-01T17:06:43.151Z,101542.06
2023-05-01T17:09:10.903Z,101540.06
2023-05-01T17:11:38.572Z,101540.78
2023-05-01T17:14:06.150Z,101534.06
2023-05-01T17:16:33.889Z,101547.91
2023-05-01T17:19:04.433Z,101548.41
2023-05-01T17:21:33.073Z,101551.28
2023-05-01T17:24:00.408Z,101556.84
2023-05-01T17:26:27.781Z,101557.53
2023-05-01T17:28:55.427Z,101558.84
2023-05-01T17:31:23.097Z,101568.78
2023-05-01T17:33:50.609Z,101571.63
2023-05-01T17:36:18.157Z,101580.25
2023-05-01T17:38:45.645Z,101580.91
2023-05-01T17:41:13.228Z,101588.66
2023-05-01T17:43:41.717Z,101596.75
2023-05-01T17:46:09.125Z,101593.19
2023-05-01T17:48:37.003Z,101601.78
2023-05-01T17:51:04.402Z,101595.22
2023-05-01T17:53:31.812Z,101595.72
2023-05-01T17:55:59.161Z,101600.09
2023-05-01T17:58:26.538Z,101600.44
2023-05-01T18:00:56.274Z,101593.69
2023-05-01T18:03:25.130Z,101596.91
2023-05-01T18:05:52.555Z,101596.41
2023-05-01T18:08:20.439Z,101611.22
2023-05-01T18:10:47.803Z,101607.88
2023-05-01T18:13:16.878Z,101609.22
2023-05-01T18:15:44.474Z,101616.63
2023-05-01T18:18:13.286Z,101615.59
2023-05-01T18:20:40.965Z,101627.75
2023-05-01T18:23:08.482Z,101624.72
2023-05-01T18:25:37.129Z,101626.38
2023-05-01T18:28:04.530Z,101626.06
2023-05-01T18:30:33.128Z,101623.38
2023-05-01T18:33:00.725Z,101636.19
2023-05-01T18:35:28.184Z,101641.56
2023-05-01T18:37:55.774Z,101644.94
2023-05-01T18:40:23.120Z,101651.00
2023-05-01T18:42:50.723Z,101647.59
2023-05-01T18:45:18.191Z,101652.66
2023-05-01T18:47:45.681Z,101659.06
2023-05-01T18:50:13.337Z,101661.88
2023-05-01T18:52:42.318Z,101661.88
2023-05-01T18:55:11.528Z,101661.03
2023-05-01T18:57:41.838Z,101665.06
2023-05-01T19:00:11.334Z,101665.38
2023-05-01T19:02:39.435Z,101667.72
2023-05-01T19:05:10.176Z,101671.59
2023-05-01T19:07:37.635Z,101676.16
2023-05-01T19:10:05.447Z,101682.53
2023-05-01T19:12:33.224Z,101676.44
2023-05-01T19:15:00.785Z,101682.91
2023-05-01T19:17:28.315Z,101678.69
2023-05-01T19:19:56.221Z,101682.72
2023-05-01T19:22:24.229Z,101675.97
2023-05-01T19:24:51.862Z,101685.22
2023-05-01T19:27:19.426Z,101678.00
2023-05-01T19:29:47.126Z,101691.44
2023-05-01T19:32:14.829Z,101692.94
2023-05-01T19:34:42.462Z,101703.00
2023-05-01T19:37:10.033Z,101695.84
2023-05-01T19:39:38.879Z,101700.88
2023-05-01T19:42:06.526Z,101698.31
2023-05-01T19:44:34.789Z,101710.94
2023-05-01T19:47:02.287Z,101699.97
2023-05-01T19:49:29.883Z,101714.31
2023-05-01T19:51:57.778Z,101711.16
2023-05-01T19:54:28.912Z,101711.75
2023-05-01T19:56:57.180Z,101711.69
2023-05-01T19:59:24.681Z,101724.00
2023-05-01T20:01:52.272Z,101720.78
2023-05-01T20:04:19.942Z,101705.25
2023-05-01T20:06:47.570Z,101718.66
2023-05-01T20:09:15.210Z,101725.84
2023-05-01T20:11:42.745Z,101729.09
2023-05-01T20:14:10.123Z,101731.41
2023-05-01T20:16:37.547Z,101736.16
2023-05-01T20:19:05.007Z,101735.75
2023-05-01T20:21:32.893Z,101736.59
2023-05-01T20:24:00.315Z,101733.97
2023-05-01T20:26:27.777Z,101742.59
2023-05-01T20:28:56.737Z,101742.59
2023-05-01T20:31:24.223Z,101745.75
2023-05-01T20:33:51.690Z,101745.94
2023-05-01T20:36:20.208Z,101758.84
2023-05-01T20:38:48.719Z,101755.69
2023-05-01T20:41:16.189Z,101758.28
2023-05-01T20:43:43.775Z,101753.00
2023-05-01T20:46:11.194Z,101759.53
2023-05-01T20:48:38.579Z,101758.38
2023-05-01T20:51:06.174Z,101766.66
2023-05-01T20:53:33.870Z,101772.41
2023-05-01T20:56:01.275Z,101766.56
2023-05-01T20:58:28.876Z,101767.63
2023-05-01T21:00:56.483Z,101758.72
2023-05-01T21:03:24.053Z,101766.69
2023-05-01T21:05:51.717Z,101774.44
2023-05-01T21:08:20.034Z,101776.91
2023-05-01T21:10:47.450Z,101773.44
2023-05-01T21:13:15.302Z,101775.69
2023-05-01T21:15:42.881Z,101780.03
2023-05-01T21:18:12.685Z,101779.03
2023-05-01T21:20:41.260Z,101780.63
2023-05-01T21:23:08.727Z,101779.25
2023-05-01T21:25:36.616Z,101773.88
2023-05-01T21:28:06.411Z,101776.41
2023-05-01T21:30:36.956Z,101772.47
2023-05-01T21:33:06.536Z,101774.84
2023-05-01T21:35:34.540Z,101779.25
2023-05-01T21:38:04.301Z,101778.97
2023-05-01T21:40:37.447Z,101768.69
2023-05-01T21:43:06.225Z,101770.81
2023-05-01T21:45:40.070Z,101776.59
2023-05-01T21:48:09.155Z,101772.28
2023-05-01T21:50:40.629Z,101774.84
2023-05-01T21:53:08.163Z,101775.97
2023-05-01T21:55:35.702Z,101775.13
2023-05-01T21:58:04.117Z,101785.63
2023-05-01T22:00:31.998Z,101784.06
2023-05-01T22:02:59.602Z,101773.47
2023-05-01T22:05:31.114Z,101782.69
2023-05-01T22:07:58.810Z,101788.19
2023-05-01T22:10:26.398Z,101793.00
2023-05-01T22:12:54.213Z,101799.44
2023-05-01T22:15:21.726Z,101794.78
2023-05-01T22:17:49.237Z,101790.97
2023-05-01T22:20:16.788Z,101795.78
2023-05-01T22:22:44.158Z,101794.97
2023-05-01T22:25:12.193Z,101797.22
2023-05-01T22:27:40.760Z,101789.19
2023-05-01T22:30:08.591Z,101790.72
2023-05-01T22:32:36.368Z,101793.25
2023-05-01T22:35:04.137Z,101786.34
2023-05-01T22:37:31.744Z,101792.56
2023-05-01T22:39:59.895Z,101783.94
2023-05-01T22:42:27.958Z,101801.06
2023-05-01T22:44:55.386Z,101798.91
2023-05-01T22:47:22.853Z,101806.00
2023-05-01T22:49:50.300Z,101815.88
2023-05-01T22:52:17.990Z,101810.66
2023-05-01T22:54:45.524Z,101820.69
2023-05-01T22:57:13.849Z,101815.59
2023-05-01T22:59:41.276Z,101822.09
2023-05-01T23:02:08.924Z,101822.66
2023-05-01T23:04:36.966Z,101821.53
2023-05-01T23:07:04.435Z,101822.09
2023-05-01T23:09:32.513Z,101826.59
2023-05-01T23:12:00.138Z,101828.59
2023-05-01T23:14:27.622Z,101823.38
2023-05-01T23:16:55.219Z,101830.44
2023-05-01T23:19:24.133Z,101819.97
2023-05-01T23:22:08.801Z,101821.25
2023-05-01T23:24:48.448Z,101829.44
2023-05-01T23:27:17.479Z,101827.31
2023-05-01T23:29:59.383Z,101826.88
2023-05-01T23:32:29.520Z,101828.75
2023-05-01T23:35:15.160Z,101830.97
2023-05-01T23:37:42.918Z,101828.31
2023-05-01T23:40:10.693Z,101837.34
2023-05-01T23:42:39.311Z,101839.19
2023-05-01T23:45:07.896Z,101842.41
2023-05-01T23:47:36.877Z,101842.41
2023-05-01T23:50:04.963Z,101841.56
2023-05-01T23:52:32.904Z,101841.56
2023-05-01T23:55:00.256Z,101852.72
2023-05-01T23:57:27.664Z,101844.41
2023-05-01T23:59:55.564Z,101849.03
